createdAt,value
2023-03-11T03:58:50.347Z,17.25
2023-03-11T03:59:50.180Z,17.23
2023-03-11T04:00:50.833Z,17.25
2023-03-11T04:01:50.899Z,17.26
2023-03-11T04:02:50.872Z,17.28
2023-03-11T04:03:52.816Z,17.30
2023-03-11T04:04:52.386Z,17.33
2023-03-11T04:05:51.218Z,17.35
2023-03-11T04:06:51.074Z,17.38
2023-03-11T04:07:52.199Z,17.40
2023-03-11T04:08:51.428Z,17.43
2023-03-11T04:09:52.321Z,17.46
2023-03-11T04:10:52.481Z,17.47
2023-03-11T04:11:52.173Z,17.50
2023-03-11T04:12:52.192Z,17.51
2023-03-11T04:13:52.043Z,17.53
2023-03-11T04:14:53.080Z,17.54
2023-03-11T04:15:53.411Z,17.54
2023-03-11T04:16:52.468Z,17.55
2023-03-11T04:17:53.505Z,17.57
2023-03-11T04:18:53.580Z,17.55
2023-03-11T04:19:53.714Z,17.57
2023-03-11T04:20:53.971Z,17.57
2023-03-11T04:21:53.077Z,17.59
2023-03-11T04:22:55.050Z,17.59
2023-03-11T04:23:55.049Z,17.59
2023-03-11T04:24:53.410Z,17.63
2023-03-11T04:25:54.511Z,17.62
2023-03-11T04:26:55.187Z,17.62
2023-03-11T04:27:55.037Z,17.64
2023-03-11T04:28:53.916Z,17.64
2023-03-11T04:29:54.040Z,17.64
2023-03-11T04:30:54.317Z,17.66
2023-03-11T04:31:56.354Z,17.66
2023-03-11T04:32:55.401Z,17.67
2023-03-11T04:33:54.524Z,17.67
2023-03-11T04:34:54.634Z,17.66
2023-03-11T04:35:55.818Z,17.67
2023-03-11T04:36:55.181Z,17.69
2023-03-11T04:37:55.981Z,17.67
2023-03-11T04:38:55.376Z,17.66
2023-03-11T04:39:56.328Z,17.66
2023-03-11T04:40:55.934Z,17.67
2023-03-11T04:41:56.649Z,17.66
2023-03-11T04:42:57.115Z,17.67
2023-03-11T04:43:56.165Z,17.67
2023-03-11T04:44:56.093Z,17.69
2023-03-11T04:45:57.291Z,17.67
2023-03-11T04:46:56.334Z,17.69
2023-03-11T04:47:57.866Z,17.67
2023-03-11T04:48:56.962Z,17.69
2023-03-11T04:49:57.665Z,17.69
2023-03-11T04:50:57.770Z,17.69
2023-03-11T04:51:57.989Z,17.69
2023-03-11T04:52:57.215Z,17.69
2023-03-11T04:53:57.718Z,17.69
2023-03-11T04:54:57.575Z,17.69
2023-03-11T04:55:57.600Z,17.70
2023-03-11T04:56:58.083Z,17.69
2023-03-11T04:57:59.166Z,17.69
2023-03-11T04:58:58.810Z,17.69
2023-03-11T04:59:58.937Z,17.69
2023-03-11T05:00:58.257Z,17.71
2023-03-11T05:01:59.205Z,17.70
2023-03-11T05:02:58.910Z,17.69
2023-03-11T05:03:58.750Z,17.70
2023-03-11T05:04:59.180Z,17.69
2023-03-11T05:05:59.214Z,17.70
2023-03-11T05:06:59.829Z,17.70
2023-03-11T05:07:59.127Z,17.70
2023-03-11T05:09:00.560Z,17.71
2023-03-11T05:10:00.652Z,17.70
2023-03-11T05:11:00.102Z,17.70
2023-03-11T05:12:00.047Z,17.70
2023-03-11T05:13:00.093Z,17.71
2023-03-11T05:13:59.951Z,17.70
2023-03-11T05:14:59.986Z,17.71
2023-03-11T05:16:00.708Z,17.71
2023-03-11T05:17:01.905Z,17.71
2023-03-11T05:18:00.605Z,17.71
2023-03-11T05:21:17.000Z,17.71
2023-03-11T05:22:17.142Z,17.71
2023-03-11T05:23:17.317Z,17.70
2023-03-11T05:24:17.245Z,17.69
2023-03-11T05:25:17.341Z,17.69
2023-03-11T05:26:17.690Z,17.69
2023-03-11T05:27:17.544Z,17.69
2023-03-11T05:28:19.118Z,17.70
2023-03-11T05:29:18.363Z,17.69
2023-03-11T05:30:18.883Z,17.69
2023-03-11T05:31:18.974Z,17.70
2023-03-11T05:32:18.833Z,17.70
2023-03-11T05:33:20.363Z,17.70
2023-03-11T05:34:20.373Z,17.70
2023-03-11T05:35:18.560Z,17.69
2023-03-11T05:36:20.485Z,17.69
2023-03-11T05:37:18.837Z,17.69
2023-03-11T05:38:19.897Z,17.67
2023-03-11T05:39:19.103Z,17.69
2023-03-11T05:40:20.540Z,17.69
2023-03-11T05:41:19.409Z,17.67
2023-03-11T05:42:21.386Z,17.67
2023-03-11T05:43:19.987Z,17.69
2023-03-11T05:44:20.732Z,17.67
2023-03-11T05:45:20.258Z,17.69
2023-03-11T05:46:20.323Z,17.69
2023-03-11T05:47:20.150Z,17.67
2023-03-11T05:48:20.388Z,17.67
2023-03-11T05:49:21.283Z,17.67
2023-03-11T05:50:21.487Z,17.69
2023-03-11T05:51:20.996Z,17.67
2023-03-11T05:52:20.932Z,17.69
2023-03-11T05:53:22.061Z,17.67
2023-03-11T05:54:21.396Z,17.69
2023-03-11T05:55:21.171Z,17.69
2023-03-11T05:56:22.471Z,17.67
2023-03-11T05:57:21.858Z,17.69
2023-03-11T05:58:22.597Z,17.69
2023-03-11T05:59:21.877Z,17.67
2023-03-11T06:00:22.863Z,17.69
2023-03-11T06:01:22.814Z,17.67
2023-03-11T06:02:22.584Z,17.67
2023-03-11T06:03:22.645Z,17.67
2023-03-11T06:04:24.546Z,17.67
2023-03-11T06:05:22.983Z,17.66
2023-03-11T06:06:23.070Z,17.67
2023-03-11T06:07:22.975Z,17.66
2023-03-11T06:08:23.880Z,17.67
2023-03-11T06:09:24.054Z,17.66
2023-03-11T06:10:23.219Z,17.67
2023-03-11T06:11:23.840Z,17.67
2023-03-11T06:12:23.912Z,17.66
2023-03-11T06:13:23.876Z,17.66
2023-03-11T06:14:23.960Z,17.67
2023-03-11T06:15:45.102Z,17.69
2023-03-11T06:16:25.145Z,17.69
2023-03-11T06:17:25.068Z,17.69
2023-03-11T06:18:25.252Z,17.66
2023-03-11T06:19:24.669Z,17.66
2023-03-11T06:20:25.486Z,17.66
2023-03-11T06:21:25.180Z,17.67
2023-03-11T06:22:25.942Z,17.67
2023-03-11T06:23:25.206Z,17.69
2023-03-11T06:24:25.307Z,17.67
2023-03-11T06:25:25.298Z,17.66
2023-03-11T06:26:25.886Z,17.67
2023-03-11T06:27:26.426Z,17.67
2023-03-11T06:28:26.082Z,17.66
2023-03-11T06:29:26.751Z,17.67
2023-03-11T06:30:25.986Z,17.67
2023-03-11T06:31:26.489Z,17.66
2023-03-11T06:32:26.559Z,17.67
2023-03-11T06:33:26.529Z,17.66
2023-03-11T06:34:26.939Z,17.66
2023-03-11T06:35:27.525Z,17.67
2023-03-11T06:36:27.739Z,17.66
2023-03-11T06:37:27.813Z,17.67
2023-03-11T06:38:27.455Z,17.67
2023-03-11T06:39:27.793Z,17.67
2023-03-11T06:40:27.751Z,17.67
2023-03-11T06:43:44.887Z,17.67
2023-03-11T06:44:43.946Z,17.66
2023-03-11T06:45:44.882Z,17.66
2023-03-11T06:46:44.125Z,17.66
2023-03-11T06:47:45.097Z,17.67
2023-03-11T06:48:44.585Z,17.66
2023-03-11T06:49:44.795Z,17.67
2023-03-11T06:50:47.026Z,17.69
2023-03-11T06:51:45.258Z,17.67
2023-03-11T06:52:46.188Z,17.67
2023-03-11T06:53:45.040Z,17.69
2023-03-11T06:54:46.228Z,17.70
2023-03-11T06:55:45.096Z,17.71
2023-03-11T06:56:45.260Z,17.71
2023-03-11T06:57:45.382Z,17.73
2023-03-11T06:58:45.502Z,17.73
2023-03-11T06:59:45.646Z,17.73
2023-03-11T07:00:45.908Z,17.73
2023-03-11T07:01:45.999Z,17.74
2023-03-11T07:02:46.095Z,17.74
2023-03-11T07:03:46.243Z,17.76
2023-03-11T07:04:46.319Z,17.74
2023-03-11T07:05:46.477Z,17.78
2023-03-11T07:06:46.554Z,17.78
2023-03-11T07:07:46.688Z,17.76
2023-03-11T07:08:46.816Z,17.78
2023-03-11T07:09:46.995Z,17.78
2023-03-11T07:10:47.533Z,17.78
2023-03-11T07:11:47.236Z,17.81
2023-03-11T07:12:47.309Z,17.79
2023-03-11T07:13:47.446Z,17.78
2023-03-11T07:14:47.567Z,17.79
2023-03-11T07:15:48.386Z,17.79
2023-03-11T07:16:47.975Z,17.79
2023-03-11T07:17:47.990Z,17.79
2023-03-11T07:18:48.109Z,17.79
2023-03-11T07:19:48.261Z,17.81
2023-03-11T07:20:48.404Z,17.81
2023-03-11T07:21:48.579Z,17.82
2023-03-11T07:22:48.698Z,17.82
2023-03-11T07:23:48.802Z,17.81
2023-03-11T07:24:48.919Z,17.81
2023-03-11T07:25:49.025Z,17.81
2023-03-11T07:26:49.084Z,17.84
2023-03-11T07:27:49.234Z,17.82
2023-03-11T07:28:49.379Z,17.84
2023-03-11T07:29:49.559Z,17.85
2023-03-11T07:30:49.926Z,17.87
2023-03-11T07:31:49.873Z,17.87
2023-03-11T07:32:49.944Z,17.87
2023-03-11T07:33:50.101Z,17.88
2023-03-11T07:34:50.434Z,17.88
2023-03-11T07:35:50.395Z,17.88
2023-03-11T07:36:50.474Z,17.88
2023-03-11T07:37:50.596Z,17.89
2023-03-11T07:38:50.702Z,17.92
2023-03-11T07:39:50.791Z,17.89
2023-03-11T07:40:50.973Z,17.89
2023-03-11T07:41:51.088Z,17.89
2023-03-11T07:42:51.511Z,17.91
2023-03-11T07:43:51.344Z,17.91
2023-03-11T07:44:51.519Z,17.91
2023-03-11T07:45:51.665Z,17.92
2023-03-11T07:46:51.758Z,17.92
2023-03-11T07:47:51.941Z,17.92
2023-03-11T07:48:52.061Z,17.95
2023-03-11T07:49:52.171Z,17.95
2023-03-11T07:50:52.480Z,17.95
2023-03-11T07:51:52.506Z,17.99
2023-03-11T07:52:52.581Z,17.99
2023-03-11T07:53:52.700Z,17.99
2023-03-11T07:54:52.823Z,17.99
2023-03-11T07:55:52.926Z,17.99
2023-03-11T07:56:54.447Z,18.02
2023-03-11T07:57:53.116Z,18.03
2023-03-11T07:58:53.279Z,18.02
2023-03-11T07:59:53.649Z,18.03
2023-03-11T08:00:53.594Z,18.03
2023-03-11T08:01:53.757Z,18.04
2023-03-11T08:02:53.992Z,18.03
2023-03-11T08:03:55.603Z,18.04
2023-03-11T08:04:55.623Z,18.04
2023-03-11T08:05:54.300Z,18.04
2023-03-11T08:06:54.418Z,18.07
2023-03-11T08:07:55.058Z,18.07
2023-03-11T08:08:54.724Z,18.07
2023-03-11T08:09:54.841Z,18.06
2023-03-11T08:10:55.081Z,18.07
2023-03-11T08:11:55.055Z,18.09
2023-03-11T08:12:56.097Z,18.09
2023-03-11T08:13:55.378Z,18.09
2023-03-11T08:14:55.436Z,18.09
2023-03-11T08:15:55.645Z,18.09
2023-03-11T08:16:55.762Z,18.09
2023-03-11T08:17:55.953Z,18.12
2023-03-11T08:18:56.970Z,18.12
2023-03-11T08:19:56.166Z,18.10
2023-03-11T08:20:56.263Z,18.13
2023-03-11T08:21:56.574Z,18.13
2023-03-11T08:22:58.310Z,18.15
2023-03-11T08:23:56.895Z,18.17
2023-03-11T08:24:56.847Z,18.15
2023-03-11T08:25:57.006Z,18.17
2023-03-11T08:26:57.184Z,18.18
2023-03-11T08:27:57.320Z,18.19
2023-03-11T08:28:57.542Z,18.18
2023-03-11T08:29:57.524Z,18.19
2023-03-11T08:30:57.703Z,18.19
2023-03-11T08:31:57.872Z,18.21
2023-03-11T08:32:57.983Z,18.21
2023-03-11T08:33:58.186Z,18.21
2023-03-11T08:34:58.265Z,18.22
2023-03-11T08:35:58.472Z,18.24
2023-03-11T08:36:58.556Z,18.25
2023-03-11T08:37:58.713Z,18.25
2023-03-11T08:38:58.809Z,18.27
2023-03-11T08:39:58.935Z,18.27
2023-03-11T08:40:59.040Z,18.28
2023-03-11T08:41:59.210Z,18.28
2023-03-11T08:42:59.401Z,18.29
2023-03-11T08:43:59.492Z,18.31
2023-03-11T08:44:59.669Z,18.29
2023-03-11T08:45:59.843Z,18.29
2023-03-11T08:46:59.948Z,18.29
2023-03-11T08:48:00.108Z,18.31
2023-03-11T08:49:01.332Z,18.34
2023-03-11T08:50:00.416Z,18.34
2023-03-11T08:51:00.579Z,18.34
2023-03-11T08:52:00.680Z,18.36
2023-03-11T08:53:00.899Z,18.36
2023-03-11T08:54:01.034Z,18.37
2023-03-11T08:55:01.171Z,18.39
2023-03-11T08:56:01.559Z,18.40
2023-03-11T08:57:01.402Z,18.42
2023-03-11T08:58:01.503Z,18.43
2023-03-11T08:59:01.713Z,18.43
2023-03-11T09:00:01.730Z,18.44
2023-03-11T09:01:01.949Z,18.46
2023-03-11T09:02:03.473Z,18.47
2023-03-11T09:03:02.650Z,18.46
2023-03-11T09:04:03.707Z,18.49
2023-03-11T09:05:02.435Z,18.49
2023-03-11T09:06:03.536Z,18.52
2023-03-11T09:07:04.128Z,18.50
2023-03-11T09:08:04.967Z,18.50
2023-03-11T09:09:03.003Z,18.52
2023-03-11T09:10:03.106Z,18.52
2023-03-11T09:11:03.235Z,18.52
2023-03-11T09:12:03.333Z,18.54
2023-03-11T09:13:03.443Z,18.54
2023-03-11T09:14:03.578Z,18.55
2023-03-11T09:15:03.665Z,18.57
2023-03-11T09:16:03.839Z,18.57
2023-03-11T09:17:04.022Z,18.58
2023-03-11T09:18:04.085Z,18.57
2023-03-11T09:19:04.228Z,18.58
2023-03-11T09:20:04.345Z,18.59
2023-03-11T09:21:04.469Z,18.58
2023-03-11T09:22:04.624Z,18.59
2023-03-11T09:23:04.735Z,18.61
2023-03-11T09:24:04.864Z,18.61
2023-03-11T09:25:06.456Z,18.59
2023-03-11T09:26:05.125Z,18.61
2023-03-11T09:27:05.296Z,18.62
2023-03-11T09:28:05.445Z,18.62
2023-03-11T09:29:05.617Z,18.62
2023-03-11T09:30:05.846Z,18.64
2023-03-11T09:31:05.964Z,18.64
2023-03-11T09:32:06.036Z,18.64
2023-03-11T09:33:06.256Z,18.62
2023-03-11T09:34:06.307Z,18.61
2023-03-11T09:35:06.460Z,18.61
2023-03-11T09:36:06.675Z,18.62
2023-03-11T09:37:06.694Z,18.62
2023-03-11T09:38:18.659Z,18.62
2023-03-11T09:39:08.026Z,18.62
2023-03-11T09:40:07.191Z,18.64
2023-03-11T09:41:07.285Z,18.62
2023-03-11T09:42:07.433Z,18.65
2023-03-11T09:43:07.650Z,18.65
2023-03-11T09:44:09.186Z,18.65
2023-03-11T09:45:07.963Z,18.64
2023-03-11T09:46:07.985Z,18.65
2023-03-11T09:47:09.582Z,18.65
2023-03-11T09:48:08.217Z,18.67
2023-03-11T09:49:08.413Z,18.68
2023-03-11T09:50:08.457Z,18.67
2023-03-11T09:51:08.597Z,18.68
2023-03-11T09:52:08.780Z,18.67
2023-03-11T09:53:08.943Z,18.68
2023-03-11T09:54:09.157Z,18.70
2023-03-11T09:55:09.183Z,18.70
2023-03-11T09:56:09.315Z,18.70
2023-03-11T09:57:09.468Z,18.70
2023-03-11T09:58:09.635Z,18.73
2023-03-11T09:59:09.732Z,18.72
2023-03-11T10:00:09.907Z,18.73
2023-03-11T10:01:10.025Z,18.74
2023-03-11T10:02:10.450Z,18.76
2023-03-11T10:13:09.250Z,18.57
2023-03-11T10:15:24.450Z,18.57
2023-03-11T10:16:24.635Z,18.59
2023-03-11T10:17:24.642Z,18.59
2023-03-11T10:18:24.726Z,18.61
2023-03-11T10:19:24.971Z,18.62
2023-03-11T10:20:25.229Z,18.64
2023-03-11T10:21:25.790Z,18.67
2023-03-11T10:22:25.341Z,18.68
2023-03-11T10:23:25.769Z,18.70
2023-03-11T10:24:25.561Z,18.73
2023-03-11T10:25:25.671Z,18.74
2023-03-11T10:26:25.910Z,18.79
2023-03-11T10:27:26.182Z,18.77
2023-03-11T10:28:26.992Z,18.82
2023-03-11T10:29:27.094Z,18.82
2023-03-11T10:30:26.434Z,18.84
2023-03-11T10:31:26.746Z,18.83
2023-03-11T10:32:26.752Z,18.83
2023-03-11T10:33:26.685Z,18.86
2023-03-11T10:34:26.861Z,18.87
2023-03-11T10:35:28.190Z,18.90
2023-03-11T10:36:27.319Z,18.91
2023-03-11T10:37:38.886Z,18.94
2023-03-11T10:38:28.584Z,18.94
2023-03-11T10:39:28.331Z,18.97
2023-03-11T10:40:28.001Z,18.98
2023-03-11T10:41:27.739Z,18.98
2023-03-11T10:42:28.057Z,18.99
2023-03-11T10:43:28.506Z,19.01
2023-03-11T10:44:28.353Z,19.05
2023-03-11T10:45:28.165Z,19.05
2023-03-11T10:46:28.489Z,19.05
2023-03-11T10:47:28.499Z,19.06
2023-03-11T10:48:28.706Z,19.06
2023-03-11T10:49:28.917Z,19.06
2023-03-11T10:50:29.024Z,19.10
2023-03-11T10:51:29.033Z,19.11
2023-03-11T10:52:29.468Z,19.10
2023-03-11T10:53:29.331Z,19.11
2023-03-11T10:54:29.385Z,19.13
2023-03-11T10:55:29.762Z,19.13
2023-03-11T10:56:29.654Z,19.14
2023-03-11T10:57:30.288Z,19.15
2023-03-11T10:58:30.141Z,19.13
2023-03-11T10:59:30.203Z,19.15
2023-03-11T11:00:30.217Z,19.15
2023-03-11T11:01:30.496Z,19.17
2023-03-11T11:02:30.617Z,19.17
2023-03-11T11:03:30.728Z,19.18
2023-03-11T11:04:30.973Z,19.18
2023-03-11T11:05:31.358Z,19.20
2023-03-11T11:06:32.095Z,19.20
2023-03-11T11:07:31.379Z,19.23
2023-03-11T11:08:31.498Z,19.23
2023-03-11T11:09:31.857Z,19.24
2023-03-11T11:10:32.004Z,19.25
2023-03-11T11:11:31.928Z,19.28
2023-03-11T11:12:32.235Z,19.25
2023-03-11T11:13:32.250Z,19.28
2023-03-11T11:14:32.444Z,19.29
2023-03-11T11:15:33.320Z,19.29
2023-03-11T11:16:32.593Z,19.28
2023-03-11T11:17:32.936Z,19.31
2023-03-11T11:18:33.110Z,19.31
2023-03-11T11:19:33.180Z,19.31
2023-03-11T11:20:33.209Z,19.33
2023-03-11T11:21:33.427Z,19.33
2023-03-11T11:22:33.435Z,19.33
2023-03-11T11:23:33.547Z,19.35
2023-03-11T11:24:33.800Z,19.35
2023-03-11T11:25:34.041Z,19.36
2023-03-11T11:26:34.443Z,19.36
2023-03-11T11:27:34.287Z,19.39
2023-03-11T11:28:34.388Z,19.39
2023-03-11T11:29:34.469Z,19.38
2023-03-11T11:30:34.651Z,19.39
2023-03-11T11:31:34.857Z,19.40
2023-03-11T11:32:35.838Z,19.40
2023-03-11T11:33:35.129Z,19.42
2023-03-11T11:34:35.154Z,19.40
2023-03-11T11:35:35.280Z,19.40
2023-03-11T11:36:35.385Z,19.43
2023-03-11T11:37:35.670Z,19.43
2023-03-11T11:39:50.750Z,19.43
2023-03-11T11:40:50.898Z,19.43
2023-03-11T11:41:51.065Z,19.46
2023-03-11T11:42:51.973Z,19.47
2023-03-11T11:43:51.179Z,19.47
2023-03-11T11:44:51.780Z,19.48
2023-03-11T11:45:51.478Z,19.47
2023-03-11T11:46:52.505Z,19.51
2023-03-11T11:47:51.693Z,19.50
2023-03-11T11:48:51.930Z,19.50
2023-03-11T11:49:51.984Z,19.50
2023-03-11T11:50:52.361Z,19.50
2023-03-11T11:51:52.347Z,19.50
2023-03-11T11:52:53.476Z,19.51
2023-03-11T11:53:52.819Z,19.53
2023-03-11T11:54:53.258Z,19.53
2023-03-11T11:55:53.278Z,19.54
2023-03-11T11:56:53.090Z,19.54
2023-03-11T11:57:53.101Z,19.55
2023-03-11T11:58:53.188Z,19.57
2023-03-11T11:59:53.623Z,19.55
2023-03-11T12:00:53.379Z,19.55
2023-03-11T12:01:53.537Z,19.55
2023-03-11T12:02:54.747Z,19.55
2023-03-11T12:03:53.899Z,19.57
2023-03-11T12:04:54.032Z,19.57
2023-03-11T12:06:15.215Z,19.58
2023-03-11T12:06:54.340Z,19.58
2023-03-11T12:07:54.389Z,19.60
2023-03-11T12:08:54.521Z,19.60
2023-03-11T12:09:54.730Z,19.61
2023-03-11T12:10:54.936Z,19.60
2023-03-11T12:11:55.036Z,19.58
2023-03-11T12:12:55.469Z,19.60
2023-03-11T12:13:55.419Z,19.63
2023-03-11T12:14:55.382Z,19.63
2023-03-11T12:15:55.631Z,19.63
2023-03-11T12:16:56.942Z,19.63
2023-03-11T12:17:56.692Z,19.65
2023-03-11T12:18:56.946Z,19.61
2023-03-11T12:19:56.116Z,19.65
2023-03-11T12:20:56.572Z,19.65
2023-03-11T12:21:56.540Z,19.66
2023-03-11T12:22:56.860Z,19.65
2023-03-11T12:23:57.538Z,19.65
2023-03-11T12:24:58.135Z,19.65
2023-03-11T12:25:57.264Z,19.66
2023-03-11T12:26:57.205Z,19.68
2023-03-11T12:27:58.274Z,19.68
2023-03-11T12:28:58.165Z,19.66
2023-03-11T12:29:58.307Z,19.69
2023-03-11T12:30:58.472Z,19.69
2023-03-11T12:31:58.666Z,19.69
2023-03-11T12:32:58.271Z,19.70
2023-03-11T12:33:58.264Z,19.70
2023-03-11T12:34:58.265Z,19.69
2023-03-11T12:35:58.300Z,19.70
2023-03-11T12:36:58.484Z,19.72
2023-03-11T12:37:59.493Z,19.72
2023-03-11T12:38:59.587Z,19.73
2023-03-11T12:39:59.735Z,19.72
2023-03-11T12:40:59.885Z,19.73
2023-03-11T12:41:59.637Z,19.73
2023-03-11T12:42:59.740Z,19.73
2023-03-11T12:44:00.318Z,19.75
2023-03-11T12:44:59.760Z,19.75
2023-03-11T12:46:00.759Z,19.75
2023-03-11T12:47:01.167Z,19.75
2023-03-11T12:48:00.912Z,19.75
2023-03-11T12:49:00.082Z,19.76
2023-03-11T12:50:00.208Z,19.76
2023-03-11T12:51:00.621Z,19.76
2023-03-11T12:52:00.979Z,19.76
2023-03-11T12:53:02.322Z,19.78
2023-03-11T12:54:00.755Z,19.78
2023-03-11T12:55:01.130Z,19.78
2023-03-11T12:56:01.536Z,19.78
2023-03-11T12:57:02.242Z,19.76
2023-03-11T12:58:01.684Z,19.79
2023-03-11T12:59:01.545Z,19.78
2023-03-11T13:02:21.084Z,19.78
2023-03-11T13:03:19.043Z,19.80
2023-03-11T13:04:18.334Z,19.80
2023-03-11T13:05:18.404Z,19.80
2023-03-11T13:06:18.398Z,19.79
2023-03-11T13:07:18.711Z,19.80
2023-03-11T13:08:18.935Z,19.83
2023-03-11T13:09:19.223Z,19.83
2023-03-11T13:10:19.879Z,19.84
2023-03-11T13:11:19.987Z,19.83
2023-03-11T13:12:19.319Z,19.84
2023-03-11T13:13:19.527Z,19.86
2023-03-11T13:14:19.724Z,19.86
2023-03-11T13:15:19.862Z,19.87
2023-03-11T13:16:20.808Z,19.86
2023-03-11T13:17:20.836Z,19.87
2023-03-11T13:18:20.540Z,19.87
2023-03-11T13:19:21.666Z,19.88
2023-03-11T13:20:21.639Z,19.88
2023-03-11T13:21:20.484Z,19.90
2023-03-11T13:22:20.977Z,19.90
2023-03-11T13:23:20.908Z,19.88
2023-03-11T13:24:22.470Z,19.90
2023-03-11T13:25:21.132Z,19.90
2023-03-11T13:26:21.450Z,19.90
2023-03-11T13:27:22.950Z,19.90
2023-03-11T13:28:22.573Z,19.91
2023-03-11T13:29:21.968Z,19.93
2023-03-11T13:30:22.837Z,19.93
2023-03-11T13:31:22.333Z,19.93
2023-03-11T13:32:22.428Z,19.95
2023-03-11T13:33:22.623Z,19.95
2023-03-11T13:34:22.511Z,19.98
2023-03-11T13:35:22.640Z,19.95
2023-03-11T13:36:23.800Z,19.98
2023-03-11T13:37:22.848Z,19.98
2023-03-11T13:38:22.890Z,20.00
2023-03-11T13:39:23.112Z,19.98
2023-03-11T13:40:23.217Z,19.98
2023-03-11T13:41:23.365Z,20.00
2023-03-11T13:42:23.495Z,20.03
2023-03-11T13:43:23.658Z,20.02
2023-03-11T13:44:23.773Z,20.05
2023-03-11T13:45:23.976Z,20.03
2023-03-11T13:46:24.019Z,20.05
2023-03-11T13:47:24.122Z,20.05
2023-03-11T13:48:24.287Z,20.08
2023-03-11T13:49:24.415Z,20.09
2023-03-11T13:50:24.542Z,20.08
2023-03-11T13:51:24.654Z,20.09
2023-03-11T13:52:24.891Z,20.08
2023-03-11T13:53:24.944Z,20.10
2023-03-11T13:54:27.038Z,20.12
2023-03-11T13:55:25.297Z,20.12
2023-03-11T13:56:25.389Z,20.12
2023-03-11T13:57:25.526Z,20.13
2023-03-11T13:58:25.660Z,20.12
2023-03-11T13:59:25.887Z,20.13
2023-03-11T14:00:25.874Z,20.12
2023-03-11T14:01:26.180Z,20.13
2023-03-11T14:02:26.163Z,20.12
2023-03-11T14:03:26.273Z,20.15
2023-03-11T14:04:26.435Z,20.12
2023-03-11T14:05:26.501Z,20.12
2023-03-11T14:06:26.621Z,20.10
2023-03-11T14:07:26.862Z,20.12
2023-03-11T14:08:26.929Z,20.12
2023-03-11T14:09:27.102Z,20.12
2023-03-11T14:10:27.163Z,20.12
2023-03-11T14:11:27.346Z,20.10
2023-03-11T14:12:27.526Z,20.10
2023-03-11T14:13:27.532Z,20.12
2023-03-11T14:14:27.628Z,20.13
2023-03-11T14:15:27.799Z,20.13
2023-03-11T14:16:28.007Z,20.12
2023-03-11T14:17:28.107Z,20.16
2023-03-11T14:18:28.497Z,20.15
2023-03-11T14:19:28.425Z,20.13
2023-03-11T14:20:28.659Z,20.13
2023-03-11T14:21:28.671Z,20.13
2023-03-11T14:22:28.803Z,20.13
2023-03-11T14:23:28.956Z,20.13
2023-03-11T14:24:29.174Z,20.13
2023-03-11T14:26:45.894Z,20.09
2023-03-11T14:27:47.808Z,20.08
2023-03-11T14:28:45.969Z,20.06
2023-03-11T14:29:45.973Z,20.05
2023-03-11T14:30:46.244Z,20.02
2023-03-11T14:31:46.268Z,20.00
2023-03-11T14:32:46.351Z,19.98
2023-03-11T14:33:47.358Z,19.95
2023-03-11T14:34:47.095Z,19.95
2023-03-11T14:35:47.242Z,19.93
2023-03-11T14:36:47.935Z,19.93
2023-03-11T14:37:47.208Z,19.90
2023-03-11T14:38:47.361Z,19.91
2023-03-11T14:39:51.092Z,19.90
2023-03-11T14:40:50.777Z,19.87
2023-03-11T14:41:48.461Z,19.87
2023-03-11T14:42:48.599Z,19.86
2023-03-11T14:43:48.724Z,19.84
2023-03-11T14:44:47.944Z,19.84
2023-03-11T14:45:48.478Z,19.83
2023-03-11T14:46:48.535Z,19.83
2023-03-11T14:47:48.405Z,19.79
2023-03-11T14:48:49.573Z,19.78
2023-03-11T14:49:49.568Z,19.76
2023-03-11T14:50:48.803Z,19.75
2023-03-11T14:51:49.035Z,19.75
2023-03-11T14:52:49.903Z,19.72
2023-03-11T14:53:49.150Z,19.72
2023-03-11T14:54:49.843Z,19.70
2023-03-11T14:55:49.824Z,19.70
2023-03-11T14:56:50.609Z,19.68
2023-03-11T14:57:50.150Z,19.69
2023-03-11T14:59:01.659Z,19.69
2023-03-11T14:59:51.023Z,19.66
2023-03-11T15:00:51.158Z,19.66
2023-03-11T15:01:51.757Z,19.63
2023-03-11T15:02:51.935Z,19.63
2023-03-11T15:03:50.525Z,19.63
2023-03-11T15:04:50.793Z,19.61
2023-03-11T15:05:51.056Z,19.60
2023-03-11T15:06:51.152Z,19.61
2023-03-11T15:07:52.067Z,19.60
2023-03-11T15:08:52.220Z,19.58
2023-03-11T15:09:52.309Z,19.58
2023-03-11T15:10:52.486Z,19.57
2023-03-11T15:11:51.962Z,19.57
2023-03-11T15:12:52.371Z,19.57
2023-03-11T15:13:53.112Z,19.54
2023-03-11T15:14:52.416Z,19.55
2023-03-11T15:15:53.216Z,19.53
2023-03-11T15:16:52.583Z,19.54
2023-03-11T15:17:53.560Z,19.54
2023-03-11T15:18:53.076Z,19.50
2023-03-11T15:19:53.775Z,19.50
2023-03-11T15:20:54.380Z,19.48
2023-03-11T15:21:53.603Z,19.48
2023-03-11T15:22:53.343Z,19.51
2023-03-11T15:23:54.548Z,19.47
2023-03-11T15:24:54.792Z,19.48
2023-03-11T15:25:54.580Z,19.48
2023-03-11T15:26:54.136Z,19.48
2023-03-11T15:27:54.396Z,19.48
2023-03-11T15:28:55.068Z,19.47
2023-03-11T15:29:54.487Z,19.46
2023-03-11T15:30:54.561Z,19.46
2023-03-11T15:31:54.613Z,19.47
2023-03-11T15:32:55.864Z,19.46
2023-03-11T15:33:55.801Z,19.46
2023-03-11T15:34:55.769Z,19.43
2023-03-11T15:35:55.681Z,19.42
2023-03-11T15:36:55.513Z,19.42
2023-03-11T15:37:55.687Z,19.43
2023-03-11T15:38:56.307Z,19.42
2023-03-11T15:39:57.126Z,19.42
2023-03-11T15:40:55.779Z,19.42
2023-03-11T15:41:56.260Z,19.40
2023-03-11T15:42:56.277Z,19.38
2023-03-11T15:43:56.349Z,19.38
2023-03-11T15:44:56.326Z,19.38
2023-03-11T15:45:56.773Z,19.36
2023-03-11T15:49:16.035Z,19.35
2023-03-11T15:50:23.526Z,19.33
2023-03-11T15:51:14.161Z,19.33
2023-03-11T15:52:13.083Z,19.33
2023-03-11T15:53:13.189Z,19.32
2023-03-11T15:54:13.352Z,19.33
2023-03-11T15:55:13.477Z,19.33
2023-03-11T15:56:13.632Z,19.32
2023-03-11T15:57:13.801Z,19.32
2023-03-11T15:58:13.969Z,19.32
2023-03-11T15:59:14.178Z,19.31
2023-03-11T16:00:14.238Z,19.32
2023-03-11T16:01:14.339Z,19.33
2023-03-11T16:12:23.115Z,19.02
2023-03-11T16:13:22.326Z,18.99
2023-03-11T16:14:22.111Z,18.98
2023-03-11T16:15:23.201Z,18.98
2023-03-11T16:16:23.351Z,18.99
2023-03-11T16:17:23.359Z,18.99
2023-03-11T16:18:23.473Z,18.99
2023-03-11T16:19:23.639Z,19.01
2023-03-11T16:20:23.277Z,19.02
2023-03-11T16:21:23.072Z,19.05
2023-03-11T16:22:23.653Z,19.06
2023-03-11T16:23:24.336Z,19.08
2023-03-11T16:24:24.512Z,19.08
2023-03-11T16:25:23.480Z,19.08
2023-03-11T16:26:23.628Z,19.08
2023-03-11T16:27:24.715Z,19.08
2023-03-11T16:28:25.154Z,19.10
2023-03-11T16:29:24.026Z,19.08
2023-03-11T16:30:24.630Z,19.10
2023-03-11T16:31:25.243Z,19.10
2023-03-11T16:32:25.751Z,19.10
2023-03-11T16:33:25.747Z,19.08
2023-03-11T16:34:25.668Z,19.08
2023-03-11T16:35:24.949Z,19.06
2023-03-11T16:36:26.135Z,19.08
2023-03-11T16:37:25.210Z,19.08
2023-03-11T16:38:25.963Z,19.08
2023-03-11T16:39:25.862Z,19.06
2023-03-11T16:40:25.931Z,19.06
2023-03-11T16:41:25.933Z,19.06
2023-03-11T16:42:25.959Z,19.06
2023-03-11T16:43:26.272Z,19.08
2023-03-11T16:44:27.087Z,19.05
2023-03-11T16:45:27.227Z,19.06
2023-03-11T16:46:27.400Z,19.05
2023-03-11T16:47:27.514Z,19.02
2023-03-11T16:48:27.777Z,19.05
2023-03-11T16:49:27.062Z,19.02
2023-03-11T16:50:27.308Z,19.02
2023-03-11T16:51:48.245Z,19.01
2023-03-11T16:52:27.399Z,19.01
2023-03-11T16:53:27.394Z,19.01
2023-03-11T16:54:27.707Z,19.01
2023-03-11T16:55:27.795Z,18.99
2023-03-11T16:56:27.809Z,18.98
2023-03-11T16:57:28.437Z,18.98
2023-03-11T16:58:28.347Z,18.98
2023-03-11T16:59:29.061Z,18.95
2023-03-11T17:00:29.603Z,18.97
2023-03-11T17:01:28.751Z,18.95
2023-03-11T17:02:28.566Z,18.98
2023-03-11T17:03:40.933Z,18.94
2023-03-11T17:04:30.175Z,18.95
2023-03-11T17:05:29.814Z,18.94
2023-03-11T17:06:29.304Z,18.94
2023-03-11T17:07:29.532Z,18.92
2023-03-11T17:08:29.741Z,18.94
2023-03-11T17:09:30.345Z,18.91
2023-03-11T17:10:30.996Z,18.94
2023-03-11T17:11:30.872Z,18.90
2023-03-11T17:12:30.869Z,18.90
2023-03-11T17:13:30.902Z,18.90
2023-03-11T17:14:30.937Z,18.90
2023-03-11T17:15:31.108Z,18.87
2023-03-11T17:16:31.339Z,18.87
2023-03-11T17:17:31.393Z,18.87
2023-03-11T17:18:30.894Z,18.86
2023-03-11T17:19:31.034Z,18.84
2023-03-11T17:20:32.142Z,18.83
2023-03-11T17:21:31.985Z,18.83
2023-03-11T17:22:31.265Z,18.83
2023-03-11T17:23:32.291Z,18.83
2023-03-11T17:24:32.441Z,18.82
2023-03-11T17:25:31.672Z,18.82